createdAt,value
2017-08-23T00:01:13.616Z,56.50
2017-08-23T00:03:39.795Z,56.60
2017-08-23T00:06:06.008Z,56.60
2017-08-23T00:08:32.181Z,57.00
2017-08-23T00:10:58.465Z,56.80
2017-08-23T00:13:24.676Z,56.60
2017-08-23T00:15:50.892Z,57.10
2017-08-23T00:18:17.067Z,56.90
2017-08-23T00:20:43.245Z,57.00
2017-08-23T00:23:09.438Z,57.30
2017-08-23T00:25:35.600Z,56.90
2017-08-23T00:28:01.751Z,57.00
2017-08-23T00:30:27.898Z,57.40
2017-08-23T00:32:54.107Z,57.30
2017-08-23T00:35:20.274Z,57.40
2017-08-23T00:37:46.487Z,57.40
2017-08-23T00:40:12.636Z,57.20
2017-08-23T00:42:38.832Z,57.20
2017-08-23T00:45:05.052Z,57.40
2017-08-23T00:47:31.230Z,57.20
2017-08-23T00:49:57.430Z,57.20
2017-08-23T00:52:23.618Z,57.10
2017-08-23T00:54:49.819Z,57.10
2017-08-23T00:57:16.003Z,57.20
2017-08-23T00:59:42.215Z,57.00
2017-08-23T01:02:08.388Z,57.20
2017-08-23T01:04:34.587Z,57.10
2017-08-23T01:07:00.839Z,57.10
2017-08-23T01:09:27.027Z,57.10
2017-08-23T01:11:53.196Z,57.00
2017-08-23T01:14:19.347Z,57.00
2017-08-23T01:16:45.533Z,57.00
2017-08-23T01:19:11.711Z,57.00
2017-08-23T01:21:37.927Z,57.00
2017-08-23T01:24:04.092Z,57.20
2017-08-23T01:26:30.324Z,57.00
2017-08-23T01:28:56.466Z,56.90
2017-08-23T01:31:22.620Z,57.60
2017-08-23T01:33:48.767Z,57.60
2017-08-23T01:36:14.956Z,57.70
2017-08-23T01:38:41.122Z,58.40
2017-08-23T01:41:07.260Z,57.50
2017-08-23T01:43:33.537Z,57.70
2017-08-23T01:45:59.687Z,57.70
2017-08-23T01:48:25.857Z,57.80
2017-08-23T01:50:52.012Z,57.70
2017-08-23T01:53:18.180Z,58.00
2017-08-23T01:55:44.368Z,57.80
2017-08-23T01:58:10.511Z,57.90
2017-08-23T02:00:36.699Z,58.00
2017-08-23T02:03:02.864Z,58.10
2017-08-23T02:05:30.441Z,58.30
2017-08-23T02:07:56.609Z,57.80
2017-08-23T02:10:22.812Z,57.70
2017-08-23T02:12:48.961Z,57.70
2017-08-23T02:15:15.139Z,57.90
2017-08-23T02:17:41.315Z,58.00
2017-08-23T02:20:07.471Z,57.80
2017-08-23T02:22:33.607Z,57.90
2017-08-23T02:24:59.835Z,57.90
2017-08-23T02:27:26.038Z,57.90
2017-08-23T02:29:52.227Z,57.50
2017-08-23T02:32:18.395Z,57.80
2017-08-23T02:34:44.620Z,57.70
2017-08-23T02:37:10.783Z,58.10
2017-08-23T02:39:36.943Z,58.00
2017-08-23T02:42:03.122Z,58.10
2017-08-23T02:44:29.358Z,57.70
2017-08-23T02:46:55.543Z,57.80
2017-08-23T02:49:21.685Z,57.40
2017-08-23T02:51:47.835Z,57.50
2017-08-23T02:54:14.006Z,57.80
2017-08-23T02:56:40.143Z,57.30
2017-08-23T02:59:06.305Z,57.40
2017-08-23T03:01:32.449Z,57.30
2017-08-23T03:03:58.683Z,57.30
2017-08-23T03:06:24.847Z,56.80
2017-08-23T03:08:51.060Z,57.00
2017-08-23T03:11:17.233Z,56.70
2017-08-23T03:13:43.395Z,57.00
2017-08-23T03:16:09.589Z,57.00
2017-08-23T03:18:35.744Z,57.00
2017-08-23T03:21:01.903Z,56.90
2017-08-23T03:23:28.095Z,57.20
2017-08-23T03:25:54.277Z,57.40
2017-08-23T03:28:20.461Z,58.20
2017-08-23T03:30:46.655Z,57.50
2017-08-23T03:33:12.811Z,57.70
2017-08-23T03:35:38.946Z,57.60
2017-08-23T03:38:05.190Z,57.80
2017-08-23T03:40:31.341Z,57.50
2017-08-23T03:42:57.504Z,57.50
2017-08-23T03:45:23.643Z,58.40
2017-08-23T03:47:49.843Z,57.70
2017-08-23T03:50:15.999Z,57.80
2017-08-23T03:52:42.183Z,57.70
2017-08-23T03:55:08.354Z,58.00
2017-08-23T03:57:34.544Z,58.10
2017-08-23T04:00:00.711Z,57.90
2017-08-23T04:02:26.894Z,57.70
2017-08-23T04:04:53.068Z,57.90
2017-08-23T04:07:19.239Z,58.00
2017-08-23T04:09:45.378Z,58.10
2017-08-23T04:12:11.527Z,58.20
2017-08-23T04:14:37.679Z,58.40
2017-08-23T04:17:03.828Z,58.40
2017-08-23T04:19:29.978Z,58.50
2017-08-23T04:21:56.153Z,58.20
2017-08-23T04:24:22.312Z,58.30
2017-08-23T04:26:48.473Z,58.50
2017-08-23T04:29:14.631Z,58.50
2017-08-23T04:31:40.772Z,58.70
2017-08-23T04:34:06.928Z,58.80
2017-08-23T04:36:33.092Z,58.90
2017-08-23T04:38:59.239Z,58.80
2017-08-23T04:41:25.395Z,59.20
2017-08-23T04:43:51.557Z,59.10
2017-08-23T04:46:17.704Z,59.10
2017-08-23T04:48:43.864Z,59.20
2017-08-23T04:51:10.000Z,59.30
2017-08-23T04:53:36.185Z,59.20
2017-08-23T04:56:02.326Z,59.20
2017-08-23T04:58:28.475Z,59.30
2017-08-23T05:00:54.624Z,59.40
2017-08-23T05:03:21.125Z,59.30
2017-08-23T05:05:47.330Z,59.10
2017-08-23T05:08:13.522Z,59.30
2017-08-23T05:10:39.687Z,59.40
2017-08-23T05:13:05.907Z,59.30
2017-08-23T05:15:32.052Z,59.00
2017-08-23T05:17:58.228Z,59.10
2017-08-23T05:20:24.404Z,58.80
2017-08-23T05:22:50.563Z,58.80
2017-08-23T05:25:16.722Z,58.50
2017-08-23T05:27:43.990Z,58.60
2017-08-23T05:30:11.303Z,58.60
2017-08-23T05:32:37.533Z,57.90
2017-08-23T05:35:03.688Z,58.10
2017-08-23T05:37:31.917Z,57.50
2017-08-23T05:39:58.203Z,57.30
2017-08-23T05:42:24.381Z,56.60
2017-08-23T05:44:50.559Z,56.60
2017-08-23T05:47:16.784Z,56.90
2017-08-23T05:49:42.939Z,57.20
2017-08-23T05:52:09.115Z,57.20
2017-08-23T05:54:35.278Z,56.80
2017-08-23T05:57:01.420Z,56.80
2017-08-23T05:59:27.586Z,56.80
2017-08-23T06:01:53.754Z,57.00
2017-08-23T06:04:19.919Z,56.60
2017-08-23T06:06:46.060Z,56.60
2017-08-23T06:09:12.272Z,55.80
2017-08-23T06:11:38.463Z,55.70
2017-08-23T06:14:04.639Z,55.80
2017-08-23T06:16:30.829Z,56.10
2017-08-23T06:18:57.052Z,56.10
2017-08-23T06:21:23.231Z,55.70
2017-08-23T06:23:49.403Z,55.40
2017-08-23T06:26:15.559Z,55.20
2017-08-23T06:28:41.712Z,55.10
2017-08-23T06:31:07.900Z,54.90
2017-08-23T06:33:34.078Z,54.40
2017-08-23T06:36:00.248Z,54.40
2017-08-23T06:38:26.479Z,53.30
2017-08-23T06:40:52.653Z,52.90
2017-08-23T06:43:18.777Z,53.80
2017-08-23T06:45:44.968Z,53.50
2017-08-23T06:48:11.147Z,52.80
2017-08-23T06:50:37.295Z,53.20
2017-08-23T06:53:03.432Z,52.50
2017-08-23T06:55:29.629Z,52.50
2017-08-23T06:57:55.796Z,52.20
2017-08-23T07:00:21.948Z,52.20
2017-08-23T07:02:48.103Z,52.10
2017-08-23T07:05:14.279Z,52.20
2017-08-23T07:07:40.568Z,51.20
2017-08-23T07:10:06.728Z,51.10
2017-08-23T07:12:36.375Z,50.30
2017-08-23T07:15:02.534Z,51.00
2017-08-23T07:17:28.659Z,50.40
2017-08-23T07:19:54.827Z,50.20
2017-08-23T07:22:21.005Z,49.90
2017-08-23T07:24:47.194Z,49.40
2017-08-23T07:27:13.384Z,49.40
2017-08-23T07:29:40.005Z,49.10
2017-08-23T07:32:06.261Z,49.20
2017-08-23T07:34:32.428Z,49.20
2017-08-23T07:36:58.587Z,48.90
2017-08-23T07:39:24.719Z,49.40
2017-08-23T07:41:50.879Z,48.60
2017-08-23T07:44:17.060Z,49.10
2017-08-23T07:46:43.210Z,48.40
2017-08-23T07:49:09.595Z,48.80
2017-08-23T07:51:36.620Z,46.90
2017-08-23T07:54:02.886Z,46.90
2017-08-23T07:56:29.055Z,47.40
2017-08-23T07:58:55.223Z,47.40
2017-08-23T08:01:21.395Z,47.40
2017-08-23T08:03:47.561Z,46.20
2017-08-23T08:06:13.741Z,46.40
2017-08-23T08:08:40.517Z,47.10
2017-08-23T08:11:06.734Z,47.70
2017-08-23T08:13:32.874Z,46.20
2017-08-23T08:15:59.025Z,45.80
2017-08-23T08:18:25.162Z,45.80
2017-08-23T08:20:51.322Z,45.40
2017-08-23T08:23:17.605Z,45.70
2017-08-23T08:25:43.798Z,45.60
2017-08-23T08:28:11.003Z,45.40
2017-08-23T08:30:37.173Z,44.80
2017-08-23T08:33:03.347Z,45.30
2017-08-23T08:35:29.515Z,44.70
2017-08-23T08:37:55.726Z,45.20
2017-08-23T08:40:22.280Z,44.90
2017-08-23T08:42:48.499Z,44.20
2017-08-23T08:45:14.684Z,43.90
2017-08-23T08:47:41.891Z,44.00
2017-08-23T08:50:09.175Z,43.70
2017-08-23T08:52:35.334Z,44.20
2017-08-23T08:55:01.643Z,43.40
2017-08-23T08:57:27.774Z,42.70
2017-08-23T08:59:57.273Z,43.40
2017-08-23T09:02:23.563Z,43.80
2017-08-23T09:04:50.625Z,42.80
2017-08-23T09:07:16.929Z,42.80
2017-08-23T09:09:44.317Z,42.00
2017-08-23T09:12:11.320Z,41.80
2017-08-23T09:14:37.500Z,41.80
2017-08-23T09:17:03.712Z,42.00
2017-08-23T09:19:29.862Z,42.10
2017-08-23T09:21:56.092Z,41.10
2017-08-23T09:24:22.243Z,41.10
2017-08-23T09:26:48.367Z,40.80
2017-08-23T09:29:14.511Z,40.80
2017-08-23T09:31:40.674Z,41.20
2017-08-23T09:34:06.853Z,41.10
2017-08-23T09:36:33.023Z,40.60
2017-08-23T09:38:59.157Z,40.40
2017-08-23T09:41:25.284Z,39.90
2017-08-23T09:43:51.443Z,39.60
2017-08-23T09:46:17.679Z,39.70
2017-08-23T09:48:43.871Z,39.60
2017-08-23T09:51:10.177Z,38.90
2017-08-23T09:53:36.303Z,39.50
2017-08-23T09:56:02.463Z,38.10
2017-08-23T09:58:28.582Z,39.50
2017-08-23T10:00:54.719Z,39.50
2017-08-23T10:03:20.898Z,38.70
2017-08-23T10:05:47.898Z,38.70
2017-08-23T10:08:14.042Z,39.00
2017-08-23T10:10:40.186Z,38.20
2017-08-23T10:13:06.387Z,38.50
2017-08-23T10:15:32.536Z,39.00
2017-08-23T10:17:59.245Z,38.70
2017-08-23T10:20:25.423Z,38.00
2017-08-23T10:22:51.553Z,37.70
2017-08-23T10:25:17.672Z,37.00
2017-08-23T10:27:43.855Z,36.70
2017-08-23T10:30:10.051Z,36.10
2017-08-23T10:32:36.184Z,36.30
2017-08-23T10:35:02.353Z,36.80
2017-08-23T10:37:28.511Z,36.90
2017-08-23T10:39:54.669Z,36.40
2017-08-23T10:42:21.430Z,35.50
2017-08-23T10:44:47.656Z,35.70
2017-08-23T10:47:14.507Z,35.50
2017-08-23T10:49:40.665Z,34.50
2017-08-23T10:52:06.859Z,34.50
2017-08-23T10:54:33.615Z,34.70
2017-08-23T10:56:59.784Z,34.10
2017-08-23T10:59:25.906Z,34.20
2017-08-23T11:01:52.071Z,33.80
2017-08-23T11:04:18.317Z,32.80
2017-08-23T11:06:44.559Z,32.20
2017-08-23T11:09:10.759Z,32.50
2017-08-23T11:11:37.296Z,32.00
2017-08-23T11:14:03.444Z,31.50
2017-08-23T11:16:29.587Z,31.00
2017-08-23T11:18:55.710Z,31.80
2017-08-23T11:21:21.846Z,33.50
2017-08-23T11:23:48.086Z,31.60
2017-08-23T11:26:14.245Z,30.80
2017-08-23T11:28:40.543Z,30.60
2017-08-23T11:31:07.135Z,30.10
2017-08-23T11:33:33.351Z,29.50
2017-08-23T11:35:59.493Z,28.70
2017-08-23T11:38:25.943Z,28.30
2017-08-23T11:40:52.160Z,27.70
2017-08-23T11:43:18.356Z,28.40
2017-08-23T11:45:44.654Z,27.30
2017-08-23T11:48:10.808Z,27.80
2017-08-23T11:50:36.940Z,27.30
2017-08-23T11:53:13.658Z,27.30
2017-08-23T11:55:39.959Z,27.40
2017-08-23T11:58:06.091Z,27.40
2017-08-23T12:00:32.266Z,27.00
2017-08-23T12:02:58.407Z,27.50
2017-08-23T12:05:24.638Z,27.30
2017-08-23T12:07:50.775Z,27.00
2017-08-23T12:10:17.054Z,27.20
2017-08-23T12:12:43.253Z,25.30
2017-08-23T12:15:09.409Z,25.60
2017-08-23T12:17:35.573Z,24.10
2017-08-23T12:20:01.811Z,24.70
2017-08-23T12:22:28.022Z,24.10
2017-08-23T12:24:54.135Z,23.50
2017-08-23T12:27:20.311Z,23.80
2017-08-23T12:29:46.495Z,23.00
2017-08-23T12:32:12.678Z,23.80
2017-08-23T12:34:38.988Z,23.40
2017-08-23T12:37:05.139Z,22.30
2017-08-23T12:39:31.898Z,22.70
2017-08-23T12:41:58.167Z,22.20
2017-08-23T12:44:24.999Z,20.80
2017-08-23T12:46:51.187Z,21.00
2017-08-23T12:49:17.364Z,20.90
2017-08-23T12:51:46.791Z,20.80
2017-08-23T12:54:13.029Z,21.00
2017-08-23T12:56:39.202Z,21.10
2017-08-23T12:59:05.327Z,20.70
2017-08-23T13:01:31.517Z,20.80
2017-08-23T13:03:57.723Z,20.70
2017-08-23T13:06:23.874Z,20.20
2017-08-23T13:08:50.015Z,19.60
2017-08-23T13:11:16.137Z,20.00
2017-08-23T13:13:42.327Z,20.20
2017-08-23T13:16:08.519Z,19.80
2017-08-23T13:18:34.748Z,20.10
2017-08-23T13:21:00.943Z,20.30
2017-08-23T13:23:27.115Z,20.60
2017-08-23T13:25:53.282Z,20.70
2017-08-23T13:28:19.457Z,20.40
2017-08-23T13:30:45.600Z,20.90
2017-08-23T13:33:11.781Z,20.40
2017-08-23T13:35:37.956Z,21.60
2017-08-23T13:38:04.110Z,21.20
2017-08-23T13:40:30.400Z,21.80
2017-08-23T13:42:58.017Z,22.00
2017-08-23T13:45:24.333Z,22.40
2017-08-23T13:47:50.596Z,22.90
2017-08-23T13:50:17.163Z,23.40
2017-08-23T13:52:43.351Z,23.40
2017-08-23T13:55:09.535Z,23.70
2017-08-23T13:57:35.711Z,23.60
2017-08-23T14:00:01.860Z,23.90
2017-08-23T14:02:28.012Z,24.00
2017-08-23T14:04:54.239Z,24.40
2017-08-23T14:07:20.408Z,25.00
2017-08-23T14:09:46.751Z,24.80
2017-08-23T14:12:12.894Z,25.50
2017-08-23T14:14:39.095Z,24.90
2017-08-23T14:17:05.231Z,25.70
2017-08-23T14:19:31.483Z,26.00
2017-08-23T14:21:57.631Z,26.40
2017-08-23T14:24:23.997Z,26.50
2017-08-23T14:26:50.133Z,26.70
2017-08-23T14:29:16.260Z,26.40
2017-08-23T14:31:42.441Z,26.40
2017-08-23T14:34:08.982Z,26.30
2017-08-23T14:36:35.288Z,27.40
2017-08-23T14:39:01.472Z,27.40
2017-08-23T14:41:27.664Z,27.40
2017-08-23T14:43:53.783Z,27.40
2017-08-23T14:46:19.964Z,27.40
2017-08-23T14:48:46.099Z,27.40
2017-08-23T14:51:12.243Z,27.70
2017-08-23T14:53:38.363Z,27.50
2017-08-23T14:56:04.665Z,27.40
2017-08-23T14:58:30.862Z,28.00
2017-08-23T15:00:57.079Z,27.90
2017-08-23T15:03:23.202Z,28.20
2017-08-23T15:05:49.371Z,28.40
2017-08-23T15:08:15.923Z,28.40
2017-08-23T15:10:42.102Z,28.30
2017-08-23T15:13:08.235Z,28.60
2017-08-23T15:15:34.411Z,27.80
2017-08-23T15:18:00.579Z,27.90
2017-08-23T15:20:26.742Z,28.50
2017-08-23T15:22:52.931Z,28.60
2017-08-23T15:25:19.155Z,29.00
2017-08-23T15:27:45.320Z,29.20
2017-08-23T15:30:11.465Z,29.10
2017-08-23T15:32:37.663Z,28.80
2017-08-23T15:35:03.860Z,29.20
2017-08-23T15:37:30.105Z,29.00
2017-08-23T15:39:56.460Z,29.40
2017-08-23T15:42:23.070Z,29.60
2017-08-23T15:44:49.246Z,29.60
2017-08-23T15:47:15.443Z,29.60
2017-08-23T15:49:41.584Z,29.70
2017-08-23T15:52:07.775Z,30.80
2017-08-23T15:54:33.930Z,29.30
2017-08-23T15:57:00.092Z,29.10
2017-08-23T15:59:26.263Z,28.90
2017-08-23T16:01:52.436Z,29.90
2017-08-23T16:04:18.585Z,29.00
2017-08-23T16:06:44.805Z,29.60
2017-08-23T16:09:10.989Z,29.90
2017-08-23T16:11:37.175Z,30.00
2017-08-23T16:14:03.345Z,31.50
2017-08-23T16:16:29.548Z,30.70
2017-08-23T16:18:55.815Z,35.50
2017-08-23T16:21:22.041Z,35.20
2017-08-23T16:23:48.201Z,35.30
2017-08-23T16:26:14.327Z,34.20
2017-08-23T16:28:40.505Z,32.10
2017-08-23T16:31:06.647Z,32.70
2017-08-23T16:33:32.822Z,33.40
2017-08-23T16:35:59.315Z,38.00
2017-08-23T16:38:25.517Z,38.70
2017-08-23T16:40:51.730Z,40.20
2017-08-23T16:43:17.899Z,38.50
2017-08-23T16:45:44.028Z,38.40
2017-08-23T16:48:10.246Z,40.40
2017-08-23T16:50:36.404Z,39.20
2017-08-23T16:53:02.557Z,40.00
2017-08-23T16:55:28.685Z,40.70
2017-08-23T16:57:54.839Z,40.00
2017-08-23T17:00:21.015Z,41.90
2017-08-23T17:02:47.175Z,42.90
2017-08-23T17:05:13.337Z,42.50
2017-08-23T17:07:39.470Z,43.50
2017-08-23T17:10:05.615Z,43.80
2017-08-23T17:12:31.783Z,43.30
2017-08-23T17:14:57.911Z,43.20
2017-08-23T17:17:24.057Z,42.50
2017-08-23T17:19:50.194Z,43.10
2017-08-23T17:22:16.310Z,43.60
2017-08-23T17:24:42.434Z,44.40
2017-08-23T17:27:08.555Z,45.70
2017-08-23T17:29:34.725Z,45.70
2017-08-23T17:32:00.838Z,45.80
2017-08-23T17:34:26.988Z,46.40
2017-08-23T17:36:53.138Z,45.80
2017-08-23T17:39:19.271Z,45.70
2017-08-23T17:41:45.412Z,45.60
2017-08-23T17:44:11.572Z,45.50
2017-08-23T17:46:37.704Z,46.20
2017-08-23T17:49:03.875Z,46.50
2017-08-23T17:51:30.018Z,46.90
2017-08-23T17:53:56.166Z,47.60
2017-08-23T17:56:22.275Z,47.70
2017-08-23T17:58:48.425Z,48.00
2017-08-23T18:01:14.572Z,46.50
2017-08-23T18:03:40.702Z,48.20
2017-08-23T18:06:06.842Z,48.30
2017-08-23T18:08:32.950Z,48.30
2017-08-23T18:10:59.066Z,48.40
2017-08-23T18:13:25.174Z,49.10
2017-08-23T18:15:51.351Z,49.80
2017-08-23T18:18:17.470Z,50.90
2017-08-23T18:20:43.627Z,50.00
2017-08-23T18:23:09.926Z,49.70
2017-08-23T18:25:36.102Z,49.30
2017-08-23T18:28:02.247Z,49.80
2017-08-23T18:30:30.456Z,50.70
2017-08-23T18:32:56.599Z,51.10
2017-08-23T18:35:23.757Z,51.30
2017-08-23T18:37:50.043Z,51.60
2017-08-23T18:40:16.360Z,51.80
2017-08-23T18:42:48.080Z,52.40
2017-08-23T18:45:14.238Z,52.90
2017-08-23T18:50:29.812Z,53.60
2017-08-23T18:52:56.021Z,53.60
2017-08-23T18:55:22.190Z,53.70
2017-08-23T18:57:48.337Z,53.60
2017-08-23T19:00:14.504Z,53.40
2017-08-23T19:05:35.412Z,53.50
2017-08-23T19:08:01.620Z,53.80
2017-08-23T19:10:27.804Z,54.00
2017-08-23T19:15:56.496Z,53.60
2017-08-23T19:18:22.658Z,54.00
2017-08-23T19:20:55.046Z,54.30
2017-08-23T19:26:03.927Z,55.20
2017-08-23T19:28:30.071Z,55.20
2017-08-23T19:30:56.237Z,55.60
2017-08-23T19:33:22.423Z,55.50
2017-08-23T19:35:48.621Z,55.60
2017-08-23T19:38:14.771Z,55.40
2017-08-23T19:40:40.948Z,55.50
2017-08-23T19:43:07.119Z,55.80
2017-08-23T19:45:33.378Z,56.10
2017-08-23T19:47:59.657Z,56.10
2017-08-23T19:50:25.906Z,56.00
2017-08-23T19:52:52.082Z,56.00
2017-08-23T19:55:18.250Z,56.20
2017-08-23T19:57:44.389Z,56.50
2017-08-23T20:00:10.612Z,56.60
2017-08-23T20:02:36.784Z,57.30
2017-08-23T20:05:02.968Z,56.60
2017-08-23T20:07:29.126Z,56.90
2017-08-23T20:09:56.490Z,57.20
2017-08-23T20:12:22.647Z,57.30
2017-08-23T20:14:48.776Z,57.50
2017-08-23T20:17:14.947Z,57.60
2017-08-23T20:19:41.115Z,57.70
2017-08-23T20:22:07.278Z,57.70
2017-08-23T20:24:33.420Z,57.60
2017-08-23T20:26:59.591Z,57.90
2017-08-23T20:29:25.726Z,57.80
2017-08-23T20:31:51.854Z,57.90
2017-08-23T20:34:17.983Z,58.20
2017-08-23T20:36:44.090Z,58.20
2017-08-23T20:39:10.232Z,58.00
2017-08-23T20:41:36.358Z,58.10
2017-08-23T20:44:02.544Z,58.50
2017-08-23T20:46:28.712Z,57.80
2017-08-23T20:48:54.902Z,57.90
2017-08-23T20:51:21.030Z,58.30
2017-08-23T20:53:47.213Z,58.30
2017-08-23T20:56:13.326Z,58.40
2017-08-23T20:58:39.515Z,58.50
2017-08-23T21:01:05.651Z,58.50
2017-08-23T21:03:31.794Z,58.50
2017-08-23T21:05:57.934Z,58.80
2017-08-23T21:08:24.099Z,58.90
2017-08-23T21:10:50.214Z,58.90
2017-08-23T21:13:16.360Z,58.90
2017-08-23T21:15:42.490Z,58.50
2017-08-23T21:18:08.800Z,58.40
2017-08-23T21:20:34.969Z,58.20
2017-08-23T21:23:01.158Z,58.80
2017-08-23T21:25:27.283Z,58.90
2017-08-23T21:27:53.427Z,58.80
2017-08-23T21:30:19.578Z,58.60
2017-08-23T21:32:45.719Z,58.90
2017-08-23T21:35:11.858Z,58.80
2017-08-23T21:37:37.986Z,59.00
2017-08-23T21:40:04.134Z,58.80
2017-08-23T21:42:30.302Z,58.40
2017-08-23T21:44:56.489Z,58.50
2017-08-23T21:47:22.629Z,58.80
2017-08-23T21:49:48.803Z,58.50
2017-08-23T21:52:14.948Z,58.40
2017-08-23T21:54:41.135Z,58.50
2017-08-23T21:57:07.293Z,58.40
2017-08-23T21:59:33.464Z,58.40
2017-08-23T22:01:59.599Z,58.20
2017-08-23T22:04:25.778Z,58.50
2017-08-23T22:06:51.950Z,58.60
2017-08-23T22:09:18.160Z,58.70
2017-08-23T22:11:44.307Z,58.80
2017-08-23T22:14:10.457Z,58.50
2017-08-23T22:16:36.671Z,58.70
2017-08-23T22:19:02.819Z,58.50
2017-08-23T22:21:28.974Z,58.80
2017-08-23T22:23:55.102Z,59.10
2017-08-23T22:26:21.235Z,59.00
2017-08-23T22:28:47.385Z,59.20
2017-08-23T22:31:13.538Z,59.00
2017-08-23T22:33:39.685Z,59.30
2017-08-23T22:36:05.848Z,58.70
2017-08-23T22:38:31.998Z,59.60
2017-08-23T22:40:58.179Z,59.10
2017-08-23T22:43:24.319Z,59.40
2017-08-23T22:45:50.516Z,59.00
2017-08-23T22:48:16.687Z,59.10
2017-08-23T22:50:43.040Z,59.50
2017-08-23T22:53:09.219Z,60.00
2017-08-23T22:55:35.386Z,59.80
2017-08-23T22:58:01.537Z,59.70
2017-08-23T23:00:27.708Z,60.30
2017-08-23T23:02:53.872Z,60.30
2017-08-23T23:05:19.995Z,60.50
2017-08-23T23:07:46.134Z,60.30
2017-08-23T23:10:12.251Z,60.30
2017-08-23T23:12:38.426Z,60.20
2017-08-23T23:15:04.618Z,60.20
2017-08-23T23:17:30.763Z,60.00
2017-08-23T23:19:56.909Z,60.20
2017-08-23T23:22:23.103Z,60.10
2017-08-23T23:24:49.550Z,60.20
2017-08-23T23:27:15.732Z,60.20
2017-08-23T23:29:41.891Z,60.10
2017-08-23T23:32:08.094Z,60.10
2017-08-23T23:34:34.247Z,60.10
2017-08-23T23:37:00.412Z,60.20
2017-08-23T23:39:26.536Z,60.10
2017-08-23T23:41:52.716Z,60.10
2017-08-23T23:44:18.858Z,60.90
2017-08-23T23:46:45.051Z,60.00
2017-08-23T23:49:11.240Z,60.40
2017-08-23T23:51:37.415Z,60.80
2017-08-23T23:54:03.586Z,60.70
2017-08-23T23:56:29.736Z,60.40
2017-08-23T23:58:55.915Z,60.80
